Terminal Aerodrome Forecast
Issued by NWS

Home | Current Version | Previous Version | Text Only | Print | Product List | Glossary On
Versions: 1 2 3 4 5 6 7 8 9 10 11 12
000
FTUS41 KBTV 281733
TAFPBG
TAF
KPBG 281733Z 2818/2918 15010KT P6SM SCT040
     FM282200 07008KT P6SM SCT040
     FM290100 VRB05KT P6SM SCT040
     FM290400 VRB05KT P6SM SCT200
     FM291400 05010KT P6SM SCT200=

USA.gov is the U.S. government's official web portal to all federal, state and local government web resources and services.